Accueil
METAR-TAF:

METAR-TAF

Aéroports :

Akulivik, Québec, Canada

latitude: 60-49N, longitude: 078-09W, altitude: 20 m

Observation

Le bulletin a été fait il y a 8 heures et 20 minutes, à 22:00 UTC
Vent 12 kt de sud-ouest
Température -27°C
Humidité 75%
Pression 1006 hPa
Visibilité: 1.6 km
Ciel couvert à une hauteur de 3200 ft
Chasse-neige élevée

METAR: CYKO 172200Z 23012KT 1SM BLSN OVC032 M27/M30 A2972 RMK SC8 SN SVR TR LOOSE LST STFD OBS/NXT 181300Z SLP068

Heure: 01:20 (06:20 UTC)


TAF: absent

Observations et prévisions météorologiques de plus de 4000 aéroports (messages METAR et TAF).

Les stations disponibles sont représentées par des disques jaunes et rouges sur la carte.

Passer la souris dessus pour voir le nom de la station.

Cliquer dessus pour voir les observations et prévisions météorologiques.

Pour changer de carte: cliquez sur les boutons verts avec une croix noire pour zoomer, sur le bouton vert avec un tiret pour effectuer un zoom arrière, ou sur les flèches vertes pour les cartes adjacentes.


METAR-TAF: